Flight Track Log - Related Links

Times and Time Zones

All times are in EDT time to prevent confusion due to time zone crossing. See the SWA540 flight status page for this flight to view local times or setup timezone preferences in your user account.

Time Position Orientation Groundspeed Altitude Reporting Facility
EDT Latitude Longitude Course Direction KTS MPH feet Rate Location/Type
Fri 09:24:44 AM 28.4167 -81.3000 270° West 155 178 700  Level Orlando TRACON
Fri 09:26:09 AM 28.3500 -81.3500 213° Southwest 236 272 4,200 2,864 Climbing Orlando TRACON
Fri 09:28:03 AM 28.3408 -81.5200 267° West 278 320 10,200 3,069 Climbing Jacksonville Center
Fri 09:29:03 AM 28.3378 -81.6239 268° West 299 344 13,100 2,950 Climbing Jacksonville Center
Fri 09:30:00 AM 28.4167 -82.0848 270° West  Level FlightAware Approximate
Fri 09:30:03 AM 28.3367 -81.7369 269° West 337 388 16,100  Level Jacksonville Center
Fri 09:31:03 AM 28.3628 -81.8522 284° West 370 426 18,900 2,700 Climbing Jacksonville Center
Fri 09:32:03 AM 28.4117 -81.9697 295° West 385 443 21,500 2,600 Climbing Jacksonville Center
Fri 09:33:03 AM 28.4958 -82.0589 317° Northwest 403 464 24,100 2,350 Climbing Jacksonville Center
Fri 09:34:03 AM 28.5903 -82.1456 321° Northwest 409 471 26,200 2,250 Climbing Jacksonville Center
Fri 09:35:03 AM 28.6886 -82.2275 324° Northwest 429 494 28,600 2,200 Climbing Jacksonville Center
Fri 09:36:03 AM 28.7853 -82.3169 321° Northwest 441 507 30,600 1,700 Climbing Jacksonville Center
Fri 09:37:03 AM 28.8794 -82.3994 323° Northwest 441 507 32,000 1,000 Climbing Jacksonville Center
Fri 09:38:03 AM 28.9778 -82.4867 322° Northwest 441 507 32,600 1,300 Climbing Jacksonville Center
Fri 09:39:03 AM 29.0719 -82.5767 320° Northwest 441 507 34,600 1,800 Climbing Jacksonville Center
Fri 09:40:03 AM 29.1703 -82.6594 324° Northwest 441 507 36,200 1,600 Climbing Jacksonville Center
Fri 09:41:03 AM 29.2664 -82.7497 321° Northwest 441 507 37,800 1,550 Climbing Jacksonville Center
Fri 09:42:03 AM 29.3606 -82.8331 322° Northwest 441 507 39,300 1,100 Climbing Jacksonville Center
Fri 09:43:03 AM 29.4544 -82.9189 321° Northwest 441 507 40,000 350 Climbing Jacksonville Center
Fri 09:44:03 AM 29.5503 -83.0047 322° Northwest 435 501 40,000  Level Jacksonville Center
Fri 09:45:03 AM 29.6336 -83.0981 316° Northwest 435 501 40,000  Level Jacksonville Center
Fri 09:46:03 AM 29.7108 -83.2011 311° West 424 488 40,000  Level Jacksonville Center
Fri 09:47:03 AM 29.7856 -83.3089 309° West 426 490 40,000  Level Jacksonville Center
Fri 09:48:03 AM 29.8625 -83.4147 310° West 426 490 40,000  Level Jacksonville Center
Fri 09:49:03 AM 29.9311 -83.5061 311° West 426 490 40,000  Level Jacksonville Center
Fri 09:50:03 AM 30.0078 -83.6097 311° West 426 490 40,000  Level Jacksonville Center
Fri 09:51:03 AM 30.0844 -83.7158 310° West 426 490 40,000  Level Jacksonville Center
Fri 09:52:03 AM 30.1608 -83.8222 310° West 426 490 40,000  Level Jacksonville Center
Fri 09:53:03 AM 30.2394 -83.9314 310° West 426 490 40,000  Level Jacksonville Center
Fri 09:54:03 AM 30.3156 -84.0381 310° West 426 490 40,000  Level Jacksonville Center
Fri 09:55:03 AM 30.3939 -84.1450 310° West 432 497 40,000  Level Jacksonville Center
Fri 09:56:03 AM 30.4703 -84.2519 310° West 432 497 40,000  Level Jacksonville Center
Fri 09:57:03 AM 30.5483 -84.3617 310° West 427 491 40,000  Level Jacksonville Center
Fri 09:58:03 AM 30.6242 -84.4689 309° West 432 497 40,000  Level Jacksonville Center
Fri 09:59:03 AM 30.7064 -84.5742 312° West 432 497 40,000  Level Jacksonville Center
Fri 10:00:03 AM 30.7864 -84.6819 311° West 437 503 40,000  Level Jacksonville Center
Fri 10:01:03 AM 30.8722 -84.8022 310° West 437 503 40,000  Level Jacksonville Center
Fri 10:02:03 AM 30.9439 -84.8981 311° West 437 503 40,000  Level Jacksonville Center
Fri 10:03:03 AM 31.0175 -84.9992 310° West 442 509 40,000  Level Jacksonville Center
Fri 10:04:03 AM 31.1114 -85.1275 311° West 442 509 40,000  Level Jacksonville Center
Fri 10:05:03 AM 31.1908 -85.2336 311° West 442 509 40,000  Level Jacksonville Center
Fri 10:06:03 AM 31.2681 -85.3400 310° West 436 502 40,000  Level Jacksonville Center
Fri 10:07:03 AM 31.3311 -85.4294 310° West 436 502 40,000  Level Jacksonville Center
Fri 10:08:53 AM 31.4775 -85.6289 311° West 435 501 40,000  Level Atlanta Center
Fri 10:09:53 AM 31.5556 -85.7375 310° West 435 501 40,000  Level Atlanta Center
Fri 10:10:53 AM 31.6311 -85.8436 310° West 435 501 40,000  Level Atlanta Center
Fri 10:11:53 AM 31.7128 -85.9625 309° West 430 495 40,000  Level Atlanta Center
Fri 10:12:53 AM 31.7883 -86.0692 310° West 430 495 40,000  Level Atlanta Center
Fri 10:13:53 AM 31.8578 -86.1636 311° West 424 488 40,000  Level Atlanta Center
Fri 10:14:53 AM 31.9372 -86.2756 310° West 429 494 40,000  Level Atlanta Center
Fri 10:15:53 AM 32.0331 -86.3981 313° West 445 512 40,000  Level Atlanta Center
Fri 10:16:53 AM 32.1103 -86.5081 310° West 445 512 40,000  Level Atlanta Center
Fri 10:17:53 AM 32.1892 -86.6206 310° West 445 512 40,000  Level Atlanta Center
Fri 10:18:53 AM 32.2539 -86.7208 307° West 431 496 40,000  Level Atlanta Center
Fri 10:19:53 AM 32.3328 -86.8339 310° West 431 496 40,000  Level Atlanta Center
Fri 10:20:53 AM 32.4097 -86.9419 310° West 431 496 40,000  Level Atlanta Center
Fri 10:21:53 AM 32.4864 -87.0528 309° West 431 496 40,000  Level Atlanta Center
Fri 10:22:53 AM 32.5711 -87.1717 310° West 431 496 40,000  Level Atlanta Center
Fri 10:25:02 AM 32.7264 -87.4014 309° West 445 512 40,000  Level Memphis Center
Fri 10:26:02 AM 32.8042 -87.5125 310° West 433 498 40,000  Level Memphis Center
Fri 10:27:02 AM 32.8819 -87.6239 310° West 433 498 40,000  Level Memphis Center
Fri 10:28:02 AM 32.9617 -87.7403 309° West 438 504 40,000  Level Memphis Center
Fri 10:29:02 AM 33.0392 -87.8592 308° West 448 516 40,000  Level Memphis Center
Fri 10:30:02 AM 33.1186 -87.9711 310° West 448 516 40,000  Level Memphis Center
Fri 10:31:02 AM 33.2022 -88.0806 312° West 448 516 40,000  Level Memphis Center
Fri 10:32:02 AM 33.3064 -88.1897 319° Northwest 448 516 40,000  Level Memphis Center
Fri 10:33:02 AM 33.4042 -88.2919 319° Northwest 458 527 40,000  Level Memphis Center
Fri 10:34:02 AM 33.4997 -88.3942 318° Northwest 458 527 40,000  Level Memphis Center
Fri 10:35:02 AM 33.5911 -88.4944 318° Northwest 451 519 40,000  Level Memphis Center
Fri 10:36:02 AM 33.6864 -88.5997 317° Northwest 451 519 40,000  Level Memphis Center
Fri 10:37:02 AM 33.7797 -88.7003 318° Northwest 451 519 40,000  Level Memphis Center
Fri 10:38:02 AM 33.8750 -88.8036 318° Northwest 451 519 40,000  Level Memphis Center
Fri 10:39:02 AM 33.9594 -88.8922 319° Northwest 444 511 40,000  Level Memphis Center
Fri 10:40:02 AM 34.0525 -88.9908 319° Northwest 449 517 40,000  Level Memphis Center
Fri 10:41:02 AM 34.1453 -89.0947 317° Northwest 449 517 40,000  Level Memphis Center
Fri 10:42:02 AM 34.2381 -89.1939 319° Northwest 449 517 40,000  Level Memphis Center
Fri 10:43:02 AM 34.3350 -89.3008 318° Northwest 449 517 40,000  Level Memphis Center
Fri 10:44:02 AM 34.4278 -89.4028 318° Northwest 449 517 40,000  Level Memphis Center
Fri 10:45:02 AM 34.5286 -89.5150 317° Northwest 449 517 40,000  Level Memphis Center
Fri 10:46:02 AM 34.6211 -89.6203 317° Northwest 454 522 40,000  Level Memphis Center
Fri 10:47:02 AM 34.7158 -89.7281 317° Northwest 449 517 40,000  Level Memphis Center
Fri 10:48:02 AM 34.8039 -89.8233 318° Northwest 455 524 40,000  Level Memphis Center
Fri 10:49:02 AM 34.9086 -89.9417 317° Northwest 472 543 40,000  Level Memphis Center
Fri 10:50:02 AM 35.0028 -90.0453 318° Northwest 485 558 40,000  Level Memphis Center
Fri 10:51:02 AM 35.0969 -90.1489 318° Northwest 471 542 40,000  Level Memphis Center
Fri 10:52:02 AM 35.1931 -90.2606 316° Northwest 471 542 40,000  Level Memphis Center
Fri 10:53:02 AM 35.2911 -90.3672 318° Northwest 471 542 40,000  Level Memphis Center
Fri 10:54:02 AM 35.3953 -90.4894 316° Northwest 471 542 40,000  Level Memphis Center
Fri 10:55:02 AM 35.4911 -90.5967 318° Northwest 471 542 40,000  Level Memphis Center
Fri 10:56:02 AM 35.5847 -90.7042 317° Northwest 466 536 40,000  Level Memphis Center
Fri 10:57:02 AM 35.6761 -90.8094 317° Northwest 460 529 40,000  Level Memphis Center
Fri 10:58:02 AM 35.7633 -90.9172 315° West 445 512 40,000  Level Memphis Center
Fri 10:59:02 AM 35.8567 -91.0256 317° Northwest 450 518 40,000  Level Memphis Center
Fri 11:00:02 AM 35.9497 -91.1339 317° Northwest 450 518 40,000  Level Memphis Center
Fri 11:01:02 AM 36.0389 -91.2400 316° Northwest 450 518 40,000  Level Memphis Center
Fri 11:02:02 AM 36.1317 -91.3489 317° Northwest 450 518 40,000  Level Memphis Center
Fri 11:03:02 AM 36.2247 -91.4581 317° Northwest 450 518 40,000  Level Memphis Center
Fri 11:04:02 AM 36.3133 -91.5650 316° Northwest 445 512 40,000  Level Memphis Center
Fri 11:05:02 AM 36.4039 -91.6719 316° Northwest 445 512 40,000  Level Memphis Center
Fri 11:07:23 AM 36.6203 -91.9169 318° Northwest 449 517 40,000  Level Kansas City Center
Fri 11:08:25 AM 36.7094 -92.0242 316° Northwest 446 513 40,000  Level Kansas City Center
Fri 11:09:26 AM 36.7978 -92.1311 316° Northwest 443 510 40,000  Level Kansas City Center
Fri 11:10:28 AM 36.8853 -92.2353 316° Northwest 438 504 40,000  Level Kansas City Center
Fri 11:11:29 AM 36.9728 -92.3406 316° Northwest 435 501 40,000  Level Kansas City Center
Fri 11:12:31 AM 37.0592 -92.4464 316° Northwest 434 499 40,000  Level Kansas City Center
Fri 11:13:33 AM 37.1453 -92.5531 315° West 433 498 40,000 -49 Level Kansas City Center
Fri 11:14:34 AM 37.2325 -92.6594 316° Northwest 434 499 39,900 -537 Descending Kansas City Center
Fri 11:15:36 AM 37.3194 -92.7669 315° West 435 501 38,900 -1,065 Descending Kansas City Center
Fri 11:16:38 AM 37.4239 -92.8939 316° Northwest 434 499 37,700 -1,024 Descending Kansas City Center
Fri 11:17:39 AM 37.5108 -93.0008 316° Northwest 433 498 36,800 -780 Descending Kansas City Center
Fri 11:18:41 AM 37.5969 -93.1075 316° Northwest 433 498 36,100 -387 Descending Kansas City Center
Fri 11:19:43 AM 37.6814 -93.2133 315° West 428 493 36,000 -290 Descending Kansas City Center
Fri 11:20:45 AM 37.7636 -93.3136 316° Northwest 413 475 35,500 -683 Descending Kansas City Center
Fri 11:21:46 AM 37.8458 -93.4161 315° West 411 473 34,600 -927 Descending Kansas City Center
Fri 11:22:48 AM 37.9272 -93.5178 315° West 411 473 33,600 -968 Descending Kansas City Center
Fri 11:23:50 AM 38.0053 -93.6172 315° West 401 461 32,600 -968 Descending Kansas City Center
Fri 11:24:52 AM 38.0817 -93.7122 316° Northwest 387 445 31,600 -1,561 Descending Kansas City Center
Fri 11:25:53 AM 38.1811 -93.7956 327° Northwest 356 410 29,400 -1,951 Descending Kansas City Center
Fri 11:26:55 AM 38.2678 -93.8436 336° Northwest 339 390 27,600 -1,742 Descending Kansas City Center
Fri 11:27:57 AM 38.3531 -93.8933 335° Northwest 337 388 25,800 -1,742 Descending Kansas City Center
Fri 11:28:59 AM 38.4394 -93.9436 335° Northwest 338 389 24,000 -1,742 Descending Kansas City Center
Fri 11:30:01 AM 38.5244 -93.9939 335° Northwest 339 390 22,200 -1,854 Descending Kansas City Center
Fri 11:31:02 AM 38.6192 -94.0469 336° Northwest 332 382 20,200 -1,805 Descending Kansas City Center
Fri 11:32:04 AM 38.6972 -94.0989 333° Northwest 332 382 18,500 -1,597 Descending Kansas City Center
Fri 11:33:06 AM 38.7661 -94.1728 320° Northwest 336 387 16,900 -1,742 Descending Kansas City Center
Fri 11:34:08 AM 38.8417 -94.2558 319° Northwest 320 368 14,900 -1,756 Descending Kansas City Center
Fri 11:35:09 AM 38.9050 -94.3247 320° Northwest 312 359 13,300 -1,415 Descending Kansas City Center
Fri 11:36:11 AM 38.9764 -94.4003 321° Northwest 299 344 12,000 -629 Descending Kansas City Center
Fri 11:37:13 AM 39.0358 -94.4656 320° Northwest 294 338 12,000  Level Kansas City Center
Fri 11:38:15 AM 39.1056 -94.5417 320° Northwest 295 339 12,000 -49 Level Kansas City Center
Fri 11:39:16 AM 39.1644 -94.6053 320° Northwest 291 335 11,900 -1,122 Descending Kansas City Center
Fri 11:40:18 AM 39.2336 -94.6217 350° North 249 287 9,700 -1,935 Descending Kansas City Center
Fri 11:41:20 AM 39.2972 -94.6036 12° North 245 282 7,900 -2,274 Descending Kansas City Center
Fri 11:42:22 AM 39.3692 -94.5814 13° North 239 275 5,000 -2,000 Descending Kansas City Center
Fri 11:43:23 AM 39.3900 -94.6386 295° West 190 219 3,800 -1,024 Descending Kansas City Center
Fri 11:44:25 AM 39.3781 -94.6783 249° West 135 155 2,900 -1,016 Descending Kansas City Center
Fri 11:45:27 AM 39.3381 -94.6928 196° South 131 151 1,700 -919 Descending Kansas City Center
Fri 11:46:29 AM 39.3017 -94.7033 193° South 128 147 1,000 -677 Descending Kansas City Center

Login

Don't have an account? Register now (free) for customized features, flight alerts, and more!